Damme, Belgium
Current Conditions -  °F | °C
As of 3:55 AM on Saturday 20 Dec 2014 (Local Time) from EHFS Reporting Station
Clear Clear  
Wind Chill: 38°   Ceiling: Unl
Heat Index: 46°   Visibility: 6mi
Dew Point: 39°   Wind: 25mph
Humidity: 76%   Direction: 270°W
Pressure: 30.15"   Gusts: NA
Location:  51.25°N, 3.28°E
Report Text: EHFS 200255Z AUTO 27022KT 230V290 9999 NCD 08/04 Q1021
Loading
Personal Weather Stations






























Interactive Weather Map New forecast layout! Learn more

10-Day Weather Forecast

Advertisements
Track Severe Weather on mobile